createdAt,value
2023-04-16T00:01:07.508Z,100.00
2023-04-16T00:03:41.775Z,100.00
2023-04-16T00:06:14.975Z,100.00
2023-04-16T00:08:47.767Z,100.00
2023-04-16T00:11:20.662Z,100.00
2023-04-16T00:13:53.500Z,100.00
2023-04-16T00:16:26.432Z,100.00
2023-04-16T00:19:00.917Z,100.00
2023-04-16T00:21:34.154Z,100.00
2023-04-16T00:24:13.910Z,100.00
2023-04-16T00:26:50.780Z,100.00
2023-04-16T00:29:23.610Z,100.00
2023-04-16T00:31:56.375Z,100.00
2023-04-16T00:34:31.390Z,100.00
2023-04-16T00:37:04.347Z,100.00
2023-04-16T00:39:37.235Z,100.00
2023-04-16T00:42:09.994Z,100.00
2023-04-16T00:44:43.404Z,100.00
2023-04-16T00:47:17.165Z,100.00
2023-04-16T00:49:55.745Z,100.00
2023-04-16T00:52:33.727Z,100.00
2023-04-16T00:55:08.431Z,100.00
2023-04-16T01:04:30.685Z,100.00
2023-04-16T01:07:05.742Z,100.00
2023-04-16T01:09:38.544Z,100.00
2023-04-16T01:12:11.797Z,100.00
2023-04-16T01:14:44.749Z,100.00
2023-04-16T01:17:17.503Z,100.00
2023-04-16T01:19:50.282Z,100.00
2023-04-16T01:22:24.411Z,100.00
2023-04-16T01:24:57.204Z,100.00
2023-04-16T01:27:30.027Z,100.00
2023-04-16T01:30:02.784Z,100.00
2023-04-16T01:32:49.063Z,100.00
2023-04-16T01:35:21.874Z,100.00
2023-04-16T01:37:56.292Z,100.00
2023-04-16T01:40:29.823Z,100.00
2023-04-16T01:43:03.035Z,100.00
2023-04-16T01:45:36.445Z,100.00
2023-04-16T01:48:09.965Z,100.00
2023-04-16T01:50:42.782Z,100.00
2023-04-16T01:53:17.278Z,100.00
2023-04-16T01:55:50.046Z,100.00
2023-04-16T01:58:22.819Z,100.00
2023-04-16T02:00:55.998Z,100.00
2023-04-16T02:03:29.780Z,100.00
2023-04-16T02:06:02.735Z,100.00
2023-04-16T02:08:37.065Z,100.00
2023-04-16T02:11:09.953Z,100.00
2023-04-16T02:13:42.839Z,100.00
2023-04-16T02:16:16.046Z,100.00
2023-04-16T02:18:53.867Z,100.00
2023-04-16T02:21:28.924Z,100.00
2023-04-16T02:24:03.579Z,100.00
2023-04-16T02:26:37.190Z,100.00
2023-04-16T02:29:16.656Z,100.00
2023-04-16T02:31:55.056Z,100.00
2023-04-16T02:34:28.215Z,100.00
2023-04-16T02:37:01.024Z,100.00
2023-04-16T02:39:35.173Z,100.00
2023-04-16T02:42:08.164Z,100.00
2023-04-16T02:44:41.599Z,100.00
2023-04-16T02:47:17.436Z,100.00
2023-04-16T02:49:53.188Z,100.00
2023-04-16T02:52:32.645Z,100.00
2023-04-16T02:55:32.806Z,100.00
2023-04-16T02:58:15.271Z,100.00
2023-04-16T03:01:42.559Z,100.00
2023-04-16T03:07:58.891Z,100.00
2023-04-16T03:10:33.230Z,100.00
2023-04-16T03:13:06.450Z,100.00
2023-04-16T03:15:39.217Z,100.00
2023-04-16T03:18:12.097Z,100.00
2023-04-16T03:20:45.329Z,100.00
2023-04-16T03:23:18.428Z,100.00
2023-04-16T03:25:52.703Z,100.00
2023-04-16T03:28:25.851Z,100.00
2023-04-16T03:30:58.776Z,100.00
2023-04-16T03:33:31.614Z,100.00
2023-04-16T03:37:21.337Z,100.00
2023-04-16T03:40:35.195Z,100.00
2023-04-16T03:43:56.173Z,100.00
2023-04-16T03:50:12.920Z,100.00
2023-04-16T03:53:32.250Z,100.00
2023-04-16T03:56:21.438Z,100.00
2023-04-16T03:58:58.548Z,100.00
2023-04-16T04:01:36.508Z,100.00
2023-04-16T04:04:11.556Z,100.00
2023-04-16T04:06:48.668Z,100.00
2023-04-16T04:09:21.708Z,100.00
2023-04-16T04:11:54.926Z,100.00
2023-04-16T04:14:29.275Z,100.00
2023-04-16T04:22:39.353Z,100.00
2023-04-16T04:25:20.595Z,100.00
2023-04-16T04:27:53.571Z,100.00
2023-04-16T04:30:27.779Z,100.00
2023-04-16T04:33:03.791Z,100.00
2023-04-16T04:35:42.539Z,100.00
2023-04-16T04:44:02.357Z,100.00
2023-04-16T04:46:36.896Z,100.00
2023-04-16T04:49:10.406Z,100.00
2023-04-16T04:51:43.659Z,100.00
2023-04-16T04:54:16.555Z,100.00
2023-04-16T04:56:50.128Z,100.00
2023-04-16T04:59:23.967Z,100.00
2023-04-16T05:01:58.292Z,100.00
2023-04-16T05:04:31.160Z,99.90
2023-04-16T05:07:03.918Z,100.00
2023-04-16T05:09:36.737Z,100.00
2023-04-16T05:12:09.651Z,100.00
2023-04-16T05:14:42.952Z,100.00
2023-04-16T05:17:17.223Z,100.00
2023-04-16T05:19:50.073Z,99.93
2023-04-16T05:22:22.798Z,99.48
2023-04-16T05:24:55.967Z,99.23
2023-04-16T05:27:28.991Z,98.86
2023-04-16T05:30:01.800Z,98.87
2023-04-16T05:32:36.186Z,98.50
2023-04-16T05:35:10.190Z,98.56
2023-04-16T05:37:43.382Z,98.65
2023-04-16T05:40:16.265Z,98.67
2023-04-16T05:42:49.318Z,98.94
2023-04-16T05:45:22.259Z,98.80
2023-04-16T05:47:56.500Z,98.50
2023-04-16T05:50:29.389Z,98.21
2023-04-16T05:53:02.796Z,98.34
2023-04-16T05:55:36.732Z,97.88
2023-04-16T05:58:09.516Z,98.21
2023-04-16T06:00:42.329Z,97.66
2023-04-16T06:03:16.514Z,96.92
2023-04-16T06:05:49.404Z,96.76
2023-04-16T06:08:22.216Z,96.54
2023-04-16T06:10:55.027Z,95.49
2023-04-16T06:13:27.800Z,94.94
2023-04-16T06:16:00.590Z,94.59
2023-04-16T06:18:34.870Z,94.94
2023-04-16T06:21:07.875Z,94.97
2023-04-16T06:23:40.913Z,94.10
2023-04-16T06:26:13.830Z,94.37
2023-04-16T06:28:46.620Z,93.72
2023-04-16T06:31:19.483Z,93.55
2023-04-16T06:33:53.686Z,93.54
2023-04-16T06:36:27.471Z,94.09
2023-04-16T06:39:00.330Z,93.59
2023-04-16T06:41:33.146Z,94.06
2023-04-16T06:44:06.190Z,94.29
2023-04-16T06:46:39.322Z,94.96
2023-04-16T06:49:13.496Z,93.61
2023-04-16T06:51:46.427Z,94.06
2023-04-16T06:54:19.690Z,92.47
2023-04-16T06:56:53.753Z,92.37
2023-04-16T06:59:26.904Z,92.81
2023-04-16T07:01:59.758Z,92.52
2023-04-16T07:04:34.064Z,92.87
2023-04-16T07:07:07.084Z,91.88
2023-04-16T07:09:40.380Z,91.36
2023-04-16T07:12:13.315Z,91.70
2023-04-16T07:14:46.293Z,92.04
2023-04-16T07:17:19.408Z,91.85
2023-04-16T07:19:53.902Z,92.27
2023-04-16T07:22:26.705Z,92.05
2023-04-16T07:24:59.578Z,91.76
2023-04-16T07:27:32.388Z,90.87
2023-04-16T07:30:06.202Z,90.36
2023-04-16T07:32:39.178Z,88.90
2023-04-16T07:35:13.477Z,89.29
2023-04-16T07:37:46.340Z,90.28
2023-04-16T07:40:19.255Z,89.89
2023-04-16T07:42:52.284Z,90.15
2023-04-16T07:45:25.409Z,89.69
2023-04-16T07:47:58.352Z,90.32
2023-04-16T07:50:32.543Z,89.74
2023-04-16T07:53:07.696Z,89.34
2023-04-16T07:55:40.895Z,89.54
2023-04-16T07:58:14.995Z,88.85
2023-04-16T08:00:49.766Z,88.30
2023-04-16T08:03:24.187Z,88.79
2023-04-16T08:05:58.991Z,88.97
2023-04-16T08:08:32.048Z,88.30
2023-04-16T08:11:05.247Z,87.51
2023-04-16T08:13:38.104Z,87.65
2023-04-16T08:16:11.020Z,86.56
2023-04-16T08:18:43.830Z,86.75
2023-04-16T08:21:18.138Z,86.18
2023-04-16T08:23:52.308Z,86.84
2023-04-16T08:26:25.422Z,85.28
2023-04-16T08:28:59.004Z,85.66
2023-04-16T08:31:32.036Z,83.95
2023-04-16T08:34:04.969Z,83.15
2023-04-16T08:36:39.188Z,84.20
2023-04-16T08:39:12.319Z,84.41
2023-04-16T08:41:47.332Z,85.23
2023-04-16T08:44:21.977Z,84.03
2023-04-16T08:46:57.969Z,86.50
2023-04-16T08:49:32.886Z,85.59
2023-04-16T08:52:07.213Z,85.12
2023-04-16T08:54:47.370Z,84.53
2023-04-16T08:57:39.650Z,85.26
2023-04-16T09:00:14.455Z,84.42
2023-04-16T09:02:47.334Z,83.25
2023-04-16T09:05:21.609Z,82.37
2023-04-16T09:07:55.775Z,81.79
2023-04-16T09:10:28.870Z,84.03
2023-04-16T09:13:02.036Z,83.04
2023-04-16T09:15:36.292Z,81.47
2023-04-16T09:18:09.071Z,80.94
2023-04-16T09:20:42.054Z,78.35
2023-04-16T09:23:16.161Z,79.25
2023-04-16T09:25:49.089Z,79.50
2023-04-16T09:28:41.698Z,77.02
2023-04-16T09:31:16.153Z,79.08
2023-04-16T09:34:03.199Z,75.05
2023-04-16T09:36:37.486Z,75.05
2023-04-16T09:39:20.582Z,76.81
2023-04-16T09:41:54.716Z,77.44
2023-04-16T09:44:36.104Z,75.31
2023-04-16T09:47:10.444Z,72.92
2023-04-16T09:49:43.824Z,74.72
2023-04-16T09:52:19.308Z,74.74
2023-04-16T09:54:54.714Z,74.62
2023-04-16T09:57:27.700Z,74.31
2023-04-16T10:00:04.730Z,73.75
2023-04-16T10:02:42.437Z,73.38
2023-04-16T10:05:18.695Z,73.07
2023-04-16T10:07:52.627Z,71.36
2023-04-16T10:10:27.339Z,73.10
2023-04-16T10:13:00.556Z,73.20
2023-04-16T10:15:33.867Z,71.15
2023-04-16T10:18:07.721Z,73.32
2023-04-16T10:20:41.480Z,71.96
2023-04-16T10:23:14.612Z,73.63
2023-04-16T10:25:49.786Z,72.16
2023-04-16T10:28:23.158Z,70.81
2023-04-16T10:30:59.611Z,70.06
2023-04-16T10:33:34.740Z,70.82
2023-04-16T10:36:12.270Z,70.42
2023-04-16T10:38:48.445Z,71.20
2023-04-16T10:41:22.731Z,70.46
2023-04-16T10:44:09.557Z,68.14
2023-04-16T10:46:43.965Z,66.76
2023-04-16T10:49:19.149Z,63.55
2023-04-16T10:51:56.760Z,65.85
2023-04-16T10:54:30.754Z,64.39
2023-04-16T10:57:07.341Z,64.71
2023-04-16T10:59:44.014Z,67.52
2023-04-16T11:02:18.851Z,66.76
2023-04-16T11:04:51.972Z,64.09
2023-04-16T11:07:34.572Z,61.85
2023-04-16T11:10:08.348Z,62.53
2023-04-16T11:12:44.725Z,61.63
2023-04-16T11:15:19.161Z,62.27
2023-04-16T11:17:52.904Z,62.52
2023-04-16T11:20:27.626Z,63.02
2023-04-16T11:23:00.302Z,60.94
2023-04-16T11:25:34.014Z,61.34
2023-04-16T11:28:08.436Z,62.24
2023-04-16T11:30:41.609Z,60.07
2023-04-16T11:33:14.553Z,58.95
2023-04-16T11:35:58.121Z,59.79
2023-04-16T11:38:36.075Z,60.92
2023-04-16T11:41:08.901Z,59.53
2023-04-16T11:43:43.073Z,61.44
2023-04-16T11:46:26.893Z,61.66
2023-04-16T11:49:00.434Z,61.31
2023-04-16T11:51:33.252Z,61.96
2023-04-16T11:54:06.447Z,62.22
2023-04-16T11:56:39.480Z,62.77
2023-04-16T11:59:15.140Z,62.71
2023-04-16T12:01:49.525Z,62.19
2023-04-16T12:04:24.779Z,62.30
2023-04-16T12:07:11.731Z,62.39
2023-04-16T12:09:45.037Z,61.50
2023-04-16T12:12:28.519Z,62.05
2023-04-16T12:15:04.176Z,62.72
2023-04-16T12:17:39.749Z,61.97
2023-04-16T12:20:14.907Z,63.53
2023-04-16T12:22:50.696Z,62.44
2023-04-16T12:25:25.728Z,62.20
2023-04-16T12:27:58.538Z,62.71
2023-04-16T12:30:32.734Z,61.81
2023-04-16T12:33:15.806Z,60.93
2023-04-16T12:35:48.750Z,60.23
2023-04-16T12:38:24.481Z,60.73
2023-04-16T12:40:58.251Z,59.27
2023-04-16T12:43:33.325Z,60.32
2023-04-16T12:46:07.560Z,59.16
2023-04-16T12:48:41.476Z,58.92
2023-04-16T12:51:14.289Z,57.09
2023-04-16T12:53:47.079Z,58.05
2023-04-16T12:56:20.274Z,59.93
2023-04-16T12:58:53.084Z,56.18
2023-04-16T13:01:27.580Z,56.15
2023-04-16T13:04:00.767Z,57.84
2023-04-16T13:06:33.840Z,59.90
2023-04-16T13:09:06.756Z,59.53
2023-04-16T13:11:39.678Z,59.04
2023-04-16T13:14:12.492Z,57.13
2023-04-16T13:16:49.116Z,56.57
2023-04-16T13:19:22.217Z,55.95
2023-04-16T13:21:55.139Z,57.14
2023-04-16T13:24:28.425Z,58.84
2023-04-16T13:27:01.392Z,57.62
2023-04-16T13:29:36.644Z,58.27
2023-04-16T13:32:13.555Z,57.83
2023-04-16T13:34:47.043Z,59.69
2023-04-16T13:37:19.882Z,60.24
2023-04-16T13:39:53.307Z,57.90
2023-04-16T13:42:26.200Z,57.90
2023-04-16T13:44:59.003Z,56.06
2023-04-16T13:47:33.244Z,56.79
2023-04-16T13:50:06.819Z,57.12
2023-04-16T13:52:39.651Z,53.92
2023-04-16T13:55:13.911Z,54.71
2023-04-16T13:57:48.058Z,56.72
2023-04-16T14:00:21.240Z,56.50
2023-04-16T14:02:58.407Z,58.31
2023-04-16T14:05:31.623Z,59.05
2023-04-16T14:08:04.445Z,58.64
2023-04-16T14:10:37.252Z,59.74
2023-04-16T14:13:10.331Z,57.86
2023-04-16T14:15:43.366Z,60.52
2023-04-16T14:18:17.652Z,57.97
2023-04-16T14:20:50.644Z,57.98
2023-04-16T14:23:23.488Z,56.73
2023-04-16T14:25:56.761Z,57.50
2023-04-16T14:28:29.643Z,57.49
2023-04-16T14:31:02.750Z,59.14
2023-04-16T14:33:37.128Z,60.49
2023-04-16T14:36:10.516Z,61.15
2023-04-16T14:38:43.793Z,59.05
2023-04-16T14:41:16.861Z,59.24
2023-04-16T14:43:49.733Z,59.91
2023-04-16T14:46:22.687Z,58.46
2023-04-16T14:48:56.983Z,59.02
2023-04-16T14:51:29.876Z,59.53
2023-04-16T14:54:02.751Z,57.90
2023-04-16T14:56:35.678Z,54.46
2023-04-16T14:59:08.696Z,54.19
2023-04-16T15:01:42.086Z,56.47
2023-04-16T15:04:16.815Z,56.32
2023-04-16T15:06:49.979Z,57.33
2023-04-16T15:09:22.790Z,55.54
2023-04-16T15:11:56.799Z,56.53
2023-04-16T15:14:29.604Z,54.90
2023-04-16T15:17:02.409Z,55.30
2023-04-16T15:19:36.635Z,54.33
2023-04-16T15:22:09.660Z,54.83
2023-04-16T15:24:42.492Z,52.58
2023-04-16T15:27:15.577Z,53.70
2023-04-16T15:29:49.690Z,52.73
2023-04-16T15:32:22.803Z,52.73
2023-04-16T15:35:00.452Z,52.86
2023-04-16T15:37:33.114Z,50.77
2023-04-16T15:40:07.843Z,53.66
2023-04-16T15:42:40.673Z,53.06
2023-04-16T15:45:13.572Z,52.55
2023-04-16T15:47:50.892Z,55.25
2023-04-16T15:50:26.658Z,53.74
2023-04-16T15:52:59.568Z,50.01
2023-04-16T15:55:32.694Z,50.04
2023-04-16T15:58:05.715Z,47.04
2023-04-16T16:00:38.575Z,46.72
2023-04-16T16:03:11.981Z,44.59
2023-04-16T16:05:47.268Z,39.45
2023-04-16T16:08:20.340Z,37.80
2023-04-16T16:10:53.170Z,42.09
2023-04-16T16:13:26.112Z,45.26
2023-04-16T16:15:59.094Z,47.82
2023-04-16T16:18:32.155Z,47.94
2023-04-16T16:21:06.394Z,50.97
2023-04-16T16:23:39.179Z,52.65
2023-04-16T16:26:12.266Z,51.48
2023-04-16T16:28:45.851Z,50.54
2023-04-16T16:31:18.685Z,54.24
2023-04-16T16:33:51.494Z,51.72
2023-04-16T16:36:26.075Z,56.31
2023-04-16T16:38:58.733Z,56.54
2023-04-16T16:41:32.257Z,57.42
2023-04-16T16:44:05.468Z,57.16
2023-04-16T16:46:38.358Z,57.93
2023-04-16T16:49:11.553Z,57.83
2023-04-16T16:51:49.610Z,58.00
2023-04-16T16:54:22.375Z,57.63
2023-04-16T16:56:55.216Z,57.56
2023-04-16T16:59:28.224Z,57.53
2023-04-16T17:02:01.355Z,58.67
2023-04-16T17:04:34.262Z,58.47
2023-04-16T17:07:08.838Z,59.30
2023-04-16T17:09:41.876Z,59.05
2023-04-16T17:12:14.804Z,61.40
2023-04-16T17:14:50.858Z,58.99
2023-04-16T17:17:24.057Z,59.54
2023-04-16T17:19:57.527Z,63.32
2023-04-16T17:22:31.806Z,67.00
2023-04-16T17:25:05.213Z,69.61
2023-04-16T17:27:38.119Z,73.49
2023-04-16T17:30:11.875Z,73.71
2023-04-16T17:32:45.097Z,74.52
2023-04-16T17:35:18.310Z,75.53
2023-04-16T17:37:52.928Z,76.84
2023-04-16T17:40:26.050Z,76.16
2023-04-16T17:42:58.935Z,76.61
2023-04-16T17:45:32.007Z,77.22
2023-04-16T17:48:05.555Z,77.11
2023-04-16T17:50:39.604Z,76.10
2023-04-16T17:53:14.283Z,76.36
2023-04-16T17:55:51.955Z,77.47
2023-04-16T17:58:26.294Z,79.00
2023-04-16T18:00:59.195Z,78.77
2023-04-16T18:03:32.893Z,79.16
2023-04-16T18:06:06.583Z,79.16
2023-04-16T18:08:41.057Z,78.95
2023-04-16T18:11:13.997Z,77.96
2023-04-16T18:13:46.897Z,77.41
2023-04-16T18:16:19.853Z,78.83
2023-04-16T18:18:52.843Z,78.66
2023-04-16T18:21:25.891Z,78.04
2023-04-16T18:24:03.029Z,77.80
2023-04-16T18:26:36.340Z,77.57
2023-04-16T18:29:09.422Z,77.52
2023-04-16T18:31:42.928Z,76.64
2023-04-16T18:34:15.963Z,77.78
2023-04-16T18:36:48.922Z,76.97
2023-04-16T18:39:23.235Z,77.64
2023-04-16T18:41:56.101Z,77.63
2023-04-16T18:44:28.963Z,78.29
2023-04-16T18:47:01.837Z,78.66
2023-04-16T18:49:34.970Z,79.74
2023-04-16T18:52:08.660Z,79.46
2023-04-16T18:54:43.510Z,79.67
2023-04-16T18:57:16.554Z,80.64
2023-04-16T18:59:49.390Z,80.48
2023-04-16T19:02:22.555Z,80.99
2023-04-16T19:04:55.716Z,81.36
2023-04-16T19:07:28.738Z,81.84
2023-04-16T19:10:03.664Z,82.12
2023-04-16T19:12:36.521Z,81.74
2023-04-16T19:15:09.909Z,82.72
2023-04-16T19:17:43.159Z,82.20
2023-04-16T19:20:16.440Z,81.86
2023-04-16T19:22:49.250Z,82.51
2023-04-16T19:25:23.458Z,82.46
2023-04-16T19:27:56.612Z,82.52
2023-04-16T19:30:29.791Z,83.34
2023-04-16T19:33:02.931Z,83.39
2023-04-16T19:35:35.943Z,83.63
2023-04-16T19:38:10.285Z,83.63
2023-04-16T19:40:46.633Z,83.60
2023-04-16T19:43:19.760Z,83.53
2023-04-16T19:45:53.304Z,84.21
2023-04-16T19:48:26.370Z,83.38
2023-04-16T19:51:02.668Z,83.32
2023-04-16T19:53:35.837Z,83.82
2023-04-16T19:56:10.043Z,84.67
2023-04-16T19:58:42.889Z,84.70
2023-04-16T20:01:15.793Z,85.30
2023-04-16T20:03:48.677Z,85.26
2023-04-16T20:06:21.866Z,85.01
2023-04-16T20:08:56.558Z,84.65
2023-04-16T20:11:30.816Z,84.80
2023-04-16T20:14:03.842Z,84.57
2023-04-16T20:16:38.445Z,84.90
2023-04-16T20:19:17.052Z,84.98
2023-04-16T20:21:50.012Z,86.16
2023-04-16T20:24:23.788Z,86.68
2023-04-16T20:26:58.094Z,86.08
2023-04-16T20:29:31.154Z,85.30
2023-04-16T20:32:04.535Z,86.61
2023-04-16T20:34:37.941Z,85.40
2023-04-16T20:37:10.760Z,86.42
2023-04-16T20:39:45.055Z,86.73
2023-04-16T20:42:21.952Z,87.69
2023-04-16T20:44:56.510Z,87.39
2023-04-16T20:47:29.609Z,87.88
2023-04-16T20:50:02.780Z,87.86
2023-04-16T20:52:36.420Z,87.81
2023-04-16T20:55:10.114Z,87.54
2023-04-16T20:57:44.306Z,87.66
2023-04-16T21:00:17.777Z,87.57
2023-04-16T21:02:50.868Z,87.93
2023-04-16T21:05:26.439Z,88.35
2023-04-16T21:07:59.506Z,87.99
2023-04-16T21:10:32.419Z,87.92
2023-04-16T21:13:06.866Z,88.49
2023-04-16T21:15:40.425Z,88.82
2023-04-16T21:18:13.950Z,88.40
2023-04-16T21:20:46.958Z,88.00
2023-04-16T21:23:19.814Z,88.67
2023-04-16T21:25:52.668Z,88.51
2023-04-16T21:28:26.866Z,88.79
2023-04-16T21:30:59.767Z,89.11
2023-04-16T21:33:32.731Z,88.89
2023-04-16T21:36:05.795Z,89.30
2023-04-16T21:38:38.755Z,88.58
2023-04-16T21:41:11.664Z,88.27
2023-04-16T21:43:45.965Z,88.09
2023-04-16T21:46:18.874Z,88.41
2023-04-16T21:48:51.671Z,88.51
2023-04-16T21:51:29.072Z,87.38
2023-04-16T21:54:02.134Z,87.60
2023-04-16T21:56:34.918Z,88.29
2023-04-16T21:59:09.688Z,88.39
2023-04-16T22:01:42.757Z,87.77
2023-04-16T22:04:15.723Z,87.68
2023-04-16T22:06:48.590Z,88.09
2023-04-16T22:09:21.412Z,88.06
2023-04-16T22:11:54.329Z,87.82
2023-04-16T22:14:29.394Z,87.61
2023-04-16T22:17:03.458Z,87.56
2023-04-16T22:19:37.154Z,88.09
2023-04-16T22:22:09.979Z,87.92
2023-04-16T22:24:43.623Z,88.01
2023-04-16T22:27:16.821Z,86.88
2023-04-16T22:29:51.131Z,87.81
2023-04-16T22:32:24.582Z,87.48
2023-04-16T22:34:57.555Z,86.94
2023-04-16T22:37:30.463Z,87.51
2023-04-16T22:40:06.972Z,88.06
2023-04-16T22:42:39.832Z,86.41
2023-04-16T22:45:14.298Z,87.39
2023-04-16T22:47:47.140Z,87.43
2023-04-16T22:50:20.667Z,87.75
2023-04-16T22:52:53.462Z,87.23
2023-04-16T22:55:26.311Z,87.94
2023-04-16T22:57:59.206Z,87.86
2023-04-16T23:00:34.197Z,88.99
2023-04-16T23:03:07.300Z,88.58
2023-04-16T23:05:40.494Z,89.21
2023-04-16T23:08:13.554Z,87.95
2023-04-16T23:10:46.510Z,88.88
2023-04-16T23:13:19.343Z,88.31
2023-04-16T23:15:53.469Z,87.93
2023-04-16T23:18:26.336Z,87.88
2023-04-16T23:20:59.184Z,88.10
2023-04-16T23:23:32.002Z,88.17
2023-04-16T23:26:05.332Z,87.42
2023-04-16T23:28:38.129Z,87.54
2023-04-16T23:31:12.745Z,88.29
2023-04-16T23:33:45.812Z,87.84
2023-04-16T23:36:18.689Z,88.42
2023-04-16T23:38:51.474Z,88.18
2023-04-16T23:41:24.351Z,88.12
2023-04-16T23:43:57.846Z,88.79
2023-04-16T23:46:32.102Z,88.84
2023-04-16T23:49:05.690Z,89.00
2023-04-16T23:51:38.470Z,89.16
2023-04-16T23:54:11.258Z,88.53
2023-04-16T23:56:44.102Z,88.47
2023-04-16T23:59:16.922Z,88.99
